createdAt,value
2022-11-02T00:00:42.594Z,11.00
2022-11-02T00:03:11.236Z,11.00
2022-11-02T00:05:41.634Z,11.00
2022-11-02T00:08:10.817Z,11.00
2022-11-02T00:10:39.547Z,10.90
2022-11-02T00:13:11.428Z,10.90
2022-11-02T00:15:40.147Z,10.90
2022-11-02T00:18:12.828Z,10.90
2022-11-02T00:20:44.564Z,11.00
2022-11-02T00:23:14.500Z,11.00
2022-11-02T00:25:45.305Z,10.90
2022-11-02T00:28:15.088Z,10.90
2022-11-02T00:30:44.123Z,11.00
2022-11-02T00:33:12.941Z,11.00
2022-11-02T00:35:45.339Z,11.00
2022-11-02T00:38:14.053Z,11.00
2022-11-02T00:40:42.694Z,10.90
2022-11-02T00:43:11.327Z,11.00
2022-11-02T00:45:40.214Z,11.00
2022-11-02T00:48:08.816Z,11.00
2022-11-02T00:50:40.573Z,11.00
2022-11-02T00:53:10.569Z,11.00
2022-11-02T00:55:39.537Z,11.00
2022-11-02T00:58:08.342Z,11.00
2022-11-02T01:00:37.229Z,11.00
2022-11-02T01:03:05.961Z,11.00
2022-11-02T01:05:34.555Z,11.00
2022-11-02T01:08:03.308Z,11.00
2022-11-02T01:10:33.708Z,11.10
2022-11-02T01:13:03.107Z,11.10
2022-11-02T01:15:31.764Z,11.00
2022-11-02T01:18:00.467Z,11.10
2022-11-02T01:20:29.155Z,11.20
2022-11-02T01:22:59.807Z,11.10
2022-11-02T01:25:28.419Z,11.00
2022-11-02T01:27:58.483Z,11.10
2022-11-02T01:30:27.041Z,11.10
2022-11-02T01:32:55.620Z,11.10
2022-11-02T01:35:24.305Z,11.10
2022-11-02T01:37:52.862Z,11.10
2022-11-02T01:40:21.687Z,11.10
2022-11-02T01:42:50.323Z,11.10
2022-11-02T01:45:20.419Z,11.10
2022-11-02T01:47:50.723Z,11.20
2022-11-02T01:50:22.087Z,11.20
2022-11-02T01:52:50.941Z,11.20
2022-11-02T01:55:22.592Z,11.20
2022-11-02T01:57:57.243Z,11.20
2022-11-02T02:00:27.512Z,11.20
2022-11-02T02:03:01.749Z,11.20
2022-11-02T02:05:34.540Z,11.20
2022-11-02T02:08:06.284Z,11.20
2022-11-02T02:10:35.631Z,11.30
2022-11-02T02:13:06.517Z,11.30
2022-11-02T02:15:43.663Z,11.30
2022-11-02T02:18:18.166Z,11.30
2022-11-02T02:21:11.014Z,11.30
2022-11-02T02:24:27.765Z,11.50
2022-11-02T02:27:14.821Z,11.30
2022-11-02T02:29:59.967Z,11.40
2022-11-02T02:32:40.899Z,11.40
2022-11-02T02:35:19.562Z,11.40
2022-11-02T02:37:54.983Z,11.40
2022-11-02T02:40:31.391Z,11.30
2022-11-02T02:43:08.196Z,11.30
2022-11-02T02:45:41.738Z,11.40
2022-11-02T02:48:16.661Z,11.40
2022-11-02T02:50:50.185Z,11.40
2022-11-02T02:53:23.410Z,11.40
2022-11-02T02:55:53.265Z,11.40
2022-11-02T02:58:27.047Z,11.40
2022-11-02T03:00:58.224Z,11.40
2022-11-02T03:03:28.968Z,11.50
2022-11-02T03:06:05.030Z,11.50
2022-11-02T03:08:37.277Z,11.40
2022-11-02T03:11:13.695Z,11.50
2022-11-02T03:14:07.736Z,11.50
2022-11-02T03:17:02.672Z,11.50
2022-11-02T03:19:40.753Z,11.50
2022-11-02T03:22:18.077Z,11.50
2022-11-02T03:24:53.461Z,11.50
2022-11-02T03:27:26.564Z,11.50
2022-11-02T03:30:04.783Z,11.50
2022-11-02T03:32:39.409Z,11.50
2022-11-02T03:35:17.512Z,11.50
2022-11-02T03:37:51.490Z,11.50
2022-11-02T03:40:23.712Z,11.50
2022-11-02T03:42:54.592Z,11.50
2022-11-02T03:45:25.889Z,11.60
2022-11-02T03:48:01.534Z,11.60
2022-11-02T03:50:30.915Z,11.60
2022-11-02T03:53:06.150Z,11.60
2022-11-02T03:55:37.758Z,11.60
2022-11-02T03:58:06.621Z,11.60
2022-11-02T04:00:37.108Z,11.60
2022-11-02T04:03:08.777Z,11.60
2022-11-02T04:05:42.569Z,11.60
2022-11-02T04:08:24.561Z,11.70
2022-11-02T04:11:11.434Z,11.70
2022-11-02T04:13:57.813Z,11.70
2022-11-02T04:16:28.299Z,11.70
2022-11-02T04:19:16.108Z,11.70
2022-11-02T04:22:05.302Z,11.80
2022-11-02T04:24:51.732Z,11.70
2022-11-02T04:27:21.301Z,11.80
2022-11-02T04:29:50.296Z,11.80
2022-11-02T04:32:39.199Z,11.80
2022-11-02T04:35:10.152Z,11.90
2022-11-02T04:38:00.011Z,11.90
2022-11-02T04:40:29.415Z,11.90
2022-11-02T04:42:57.989Z,11.90
2022-11-02T04:45:26.639Z,11.90
2022-11-02T04:48:00.513Z,11.90
2022-11-02T04:50:31.153Z,11.90
2022-11-02T04:53:00.642Z,12.00
2022-11-02T04:55:29.968Z,12.00
2022-11-02T04:57:58.561Z,12.00
2022-11-02T05:00:27.283Z,12.00
2022-11-02T05:02:55.977Z,12.00
2022-11-02T05:05:24.995Z,12.10
2022-11-02T05:07:55.146Z,12.10
2022-11-02T05:10:23.899Z,12.00
2022-11-02T05:12:58.900Z,12.10
2022-11-02T05:15:27.831Z,12.00
2022-11-02T05:17:56.487Z,12.10
2022-11-02T05:20:25.134Z,12.10
2022-11-02T05:22:55.186Z,12.10
2022-11-02T05:25:23.988Z,12.10
2022-11-02T05:27:52.918Z,12.10
2022-11-02T05:30:21.481Z,12.10
2022-11-02T05:32:50.060Z,12.20
2022-11-02T05:35:18.736Z,12.20
2022-11-02T05:37:47.394Z,12.20
2022-11-02T05:40:17.825Z,12.20
2022-11-02T05:42:46.567Z,12.20
2022-11-02T05:45:16.548Z,12.20
2022-11-02T05:47:47.901Z,12.20
2022-11-02T05:50:16.705Z,12.30
2022-11-02T05:52:45.400Z,12.30
2022-11-02T05:55:14.374Z,12.30
2022-11-02T05:57:44.379Z,12.30
2022-11-02T06:00:14.272Z,12.30
2022-11-02T06:02:42.984Z,12.40
2022-11-02T06:05:11.956Z,12.40
2022-11-02T06:07:43.665Z,12.30
2022-11-02T06:10:12.428Z,12.40
2022-11-02T06:12:41.015Z,12.40
2022-11-02T06:15:12.204Z,12.40
2022-11-02T06:17:41.449Z,12.40
2022-11-02T06:20:11.235Z,12.50
2022-11-02T06:22:43.554Z,12.50
2022-11-02T06:25:13.162Z,12.50
2022-11-02T06:27:45.908Z,12.50
2022-11-02T06:30:16.647Z,12.60
2022-11-02T06:32:48.939Z,12.60
2022-11-02T06:35:18.524Z,12.60
2022-11-02T06:37:47.885Z,12.60
2022-11-02T06:40:19.272Z,12.60
2022-11-02T06:43:10.831Z,12.60
2022-11-02T06:45:40.076Z,12.60
2022-11-02T06:48:08.990Z,12.70
2022-11-02T06:50:37.889Z,12.70
2022-11-02T06:53:06.746Z,12.70
2022-11-02T06:55:35.614Z,12.70
2022-11-02T06:58:04.430Z,12.80
2022-11-02T07:00:33.065Z,12.80
2022-11-02T07:03:04.607Z,12.90
2022-11-02T07:05:34.566Z,12.90
2022-11-02T07:08:03.758Z,13.00
2022-11-02T07:10:32.931Z,13.00
2022-11-02T07:13:01.923Z,13.00
2022-11-02T07:15:31.059Z,13.00
2022-11-02T07:17:59.721Z,13.00
2022-11-02T07:20:30.614Z,13.10
2022-11-02T07:23:00.841Z,13.20
2022-11-02T07:25:31.984Z,13.20
2022-11-02T07:28:01.579Z,13.30
2022-11-02T07:30:30.869Z,13.40
2022-11-02T07:33:00.102Z,13.40
2022-11-02T07:35:30.203Z,13.40
2022-11-02T07:38:00.959Z,13.40
2022-11-02T07:40:30.497Z,13.20
2022-11-02T07:42:59.690Z,13.00
2022-11-02T07:45:29.359Z,12.90
2022-11-02T07:47:58.239Z,12.90
2022-11-02T07:50:28.681Z,12.90
2022-11-02T07:53:00.456Z,12.80
2022-11-02T07:55:31.603Z,12.80
2022-11-02T07:58:01.747Z,12.80
2022-11-02T08:00:32.559Z,12.80
2022-11-02T08:03:03.997Z,12.80
2022-11-02T08:05:35.493Z,12.90
2022-11-02T08:08:07.843Z,12.90
2022-11-02T08:10:40.375Z,13.00
2022-11-02T08:13:09.941Z,13.10
2022-11-02T08:15:39.211Z,13.20
2022-11-02T08:18:09.677Z,13.20
2022-11-02T08:20:38.632Z,13.30
2022-11-02T08:23:08.877Z,13.40
2022-11-02T08:25:38.163Z,13.60
2022-11-02T08:28:08.656Z,13.70
2022-11-02T08:30:38.734Z,13.70
2022-11-02T08:33:09.914Z,13.90
2022-11-02T08:35:38.797Z,14.00
2022-11-02T08:38:09.612Z,14.20
2022-11-02T08:40:39.018Z,14.20
2022-11-02T08:43:09.266Z,14.40
2022-11-02T08:46:12.495Z,14.60
2022-11-02T08:48:29.118Z,14.70
2022-11-02T08:50:57.741Z,14.80
2022-11-02T08:53:27.934Z,14.70
2022-11-02T08:55:59.500Z,14.70
2022-11-02T08:58:28.521Z,14.70
2022-11-02T09:00:57.572Z,14.70
2022-11-02T09:03:27.476Z,14.70
2022-11-02T09:05:59.895Z,14.60
2022-11-02T09:08:30.835Z,14.70
2022-11-02T09:11:02.186Z,14.80
2022-11-02T09:13:31.440Z,15.00
2022-11-02T09:16:01.250Z,15.10
2022-11-02T09:18:30.224Z,15.20
2022-11-02T09:21:02.313Z,15.40
2022-11-02T09:23:32.596Z,15.60
2022-11-02T09:26:02.443Z,15.70
2022-11-02T09:28:31.810Z,15.70
2022-11-02T09:31:00.619Z,15.70
2022-11-02T09:33:29.983Z,15.80
2022-11-02T09:36:02.956Z,15.90
2022-11-02T09:38:33.464Z,16.00
2022-11-02T09:41:13.964Z,16.10
2022-11-02T09:43:54.675Z,16.20
2022-11-02T09:46:27.348Z,16.40
2022-11-02T09:49:00.365Z,16.40
2022-11-02T09:51:35.150Z,16.60
2022-11-02T09:54:13.390Z,16.60
2022-11-02T09:56:47.233Z,16.60
2022-11-02T09:59:18.178Z,16.50
2022-11-02T10:02:04.245Z,16.40
2022-11-02T10:05:02.590Z,16.30
2022-11-02T10:08:00.002Z,16.20
2022-11-02T10:14:17.139Z,16.10
2022-11-02T10:16:50.949Z,16.10
2022-11-02T10:19:25.009Z,16.00
2022-11-02T10:22:00.042Z,16.00
2022-11-02T10:24:35.148Z,15.90
2022-11-02T10:27:13.079Z,15.80
2022-11-02T10:29:50.007Z,15.70
2022-11-02T10:32:27.220Z,15.70
2022-11-02T10:35:17.871Z,15.70
2022-11-02T10:38:03.184Z,15.60
2022-11-02T10:40:48.422Z,15.60
2022-11-02T10:43:30.961Z,15.40
2022-11-02T10:46:27.846Z,15.30
2022-11-02T10:49:06.842Z,15.30
2022-11-02T10:51:35.757Z,15.40
2022-11-02T10:56:34.605Z,15.50
2022-11-02T10:59:13.384Z,15.50
2022-11-02T11:01:48.441Z,15.50
2022-11-02T11:04:25.777Z,15.50
2022-11-02T11:06:55.883Z,15.50
2022-11-02T11:09:29.974Z,15.40
2022-11-02T11:12:01.102Z,15.30
2022-11-02T11:20:32.679Z,15.30
2022-11-02T11:23:21.649Z,15.30
2022-11-02T11:25:59.721Z,15.20
2022-11-02T11:28:31.080Z,15.20
2022-11-02T11:31:14.680Z,15.10
2022-11-02T11:33:47.837Z,15.20
2022-11-02T11:38:57.774Z,15.40
2022-11-02T11:41:26.824Z,15.60
2022-11-02T11:43:56.241Z,15.60
2022-11-02T11:46:25.279Z,15.60
2022-11-02T11:48:59.635Z,15.60
2022-11-02T11:51:32.772Z,15.60
2022-11-02T11:54:23.936Z,15.70
2022-11-02T11:56:54.615Z,15.70
2022-11-02T11:59:46.126Z,15.80
2022-11-02T12:02:25.298Z,15.70
2022-11-02T12:05:01.682Z,15.60
2022-11-02T12:08:02.685Z,15.50
2022-11-02T12:10:48.953Z,15.40
2022-11-02T12:13:29.693Z,15.30
2022-11-02T12:16:14.810Z,15.20
2022-11-02T12:19:00.456Z,15.10
2022-11-02T12:21:42.440Z,15.20
2022-11-02T12:24:37.892Z,15.30
2022-11-02T12:27:22.019Z,15.50
2022-11-02T12:30:05.320Z,15.70
2022-11-02T12:32:50.273Z,16.00
2022-11-02T12:35:36.656Z,16.10
2022-11-02T12:38:37.403Z,16.20
2022-11-02T12:41:09.372Z,16.30
2022-11-02T12:43:43.781Z,16.30
2022-11-02T12:46:38.503Z,16.30
2022-11-02T12:49:25.566Z,16.20
2022-11-02T12:52:02.985Z,16.20
2022-11-02T12:54:41.617Z,16.00
2022-11-02T12:57:14.016Z,15.90
2022-11-02T12:59:46.349Z,15.80
2022-11-02T13:02:19.922Z,15.70
2022-11-02T13:04:52.842Z,15.50
2022-11-02T13:07:29.629Z,15.40
2022-11-02T13:10:15.077Z,15.20
2022-11-02T13:12:45.888Z,15.00
2022-11-02T13:15:18.403Z,14.90
2022-11-02T13:17:50.870Z,14.80
2022-11-02T13:20:24.358Z,14.60
2022-11-02T13:23:09.219Z,14.50
2022-11-02T13:25:44.237Z,14.30
2022-11-02T13:28:15.967Z,14.20
2022-11-02T13:30:46.350Z,14.10
2022-11-02T13:33:20.498Z,14.00
2022-11-02T13:35:50.573Z,13.90
2022-11-02T13:38:31.834Z,13.90
2022-11-02T13:41:15.837Z,13.80
2022-11-02T13:44:16.072Z,13.70
2022-11-02T13:47:13.426Z,13.60
2022-11-02T13:49:44.263Z,13.50
2022-11-02T13:52:15.646Z,13.50
2022-11-02T13:54:49.610Z,13.50
2022-11-02T13:57:34.144Z,13.50
2022-11-02T14:00:04.538Z,13.60
2022-11-02T14:02:37.879Z,13.60
2022-11-02T14:05:07.486Z,13.70
2022-11-02T14:07:41.843Z,13.70
2022-11-02T14:10:17.946Z,13.90
2022-11-02T14:12:49.683Z,13.90
2022-11-02T14:15:54.307Z,14.00
2022-11-02T14:18:32.033Z,14.00
2022-11-02T14:21:21.525Z,14.00
2022-11-02T14:23:50.445Z,13.90
2022-11-02T14:26:56.073Z,13.60
2022-11-02T14:29:50.499Z,13.50
2022-11-02T14:32:27.747Z,13.30
2022-11-02T14:35:15.442Z,13.20
2022-11-02T14:38:11.101Z,13.00
2022-11-02T14:40:53.523Z,12.80
2022-11-02T14:43:50.353Z,12.60
2022-11-02T14:46:35.500Z,12.60
2022-11-02T14:49:06.330Z,12.50
2022-11-02T14:51:38.040Z,12.40
2022-11-02T14:54:19.185Z,12.20
2022-11-02T14:56:54.800Z,12.20
2022-11-02T14:59:28.527Z,12.00
2022-11-02T15:02:02.050Z,12.00
2022-11-02T15:04:33.124Z,12.00
2022-11-02T15:07:10.203Z,11.90
2022-11-02T15:09:59.502Z,11.90
2022-11-02T15:12:36.300Z,11.70
2022-11-02T15:15:34.681Z,11.50
2022-11-02T15:18:37.913Z,11.40
2022-11-02T15:21:27.332Z,11.20
2022-11-02T15:24:20.311Z,11.00
2022-11-02T15:26:54.250Z,10.90
2022-11-02T15:29:36.195Z,10.70
2022-11-02T15:32:09.587Z,10.70
2022-11-02T15:34:44.067Z,10.50
2022-11-02T15:37:19.352Z,10.50
2022-11-02T15:39:51.790Z,10.40
2022-11-02T15:42:30.658Z,10.30
2022-11-02T15:48:24.195Z,10.10
2022-11-02T15:51:03.084Z,10.00
2022-11-02T15:54:03.767Z,9.90
2022-11-02T15:56:48.049Z,9.80
2022-11-02T15:59:50.979Z,9.80
2022-11-02T16:02:25.474Z,9.70
2022-11-02T16:04:56.809Z,9.60
2022-11-02T16:07:33.234Z,9.50
2022-11-02T16:10:21.161Z,9.50
2022-11-02T16:12:58.515Z,9.40
2022-11-02T16:15:27.703Z,9.40
2022-11-02T16:17:56.657Z,9.30
2022-11-02T16:20:28.351Z,9.30
2022-11-02T16:23:01.117Z,9.20
2022-11-02T16:25:39.508Z,9.20
2022-11-02T16:28:23.930Z,9.20
2022-11-02T16:31:17.180Z,9.10
2022-11-02T16:33:50.419Z,9.10
2022-11-02T16:36:22.513Z,9.00
2022-11-02T16:39:00.449Z,9.00
2022-11-02T16:41:31.884Z,9.10
2022-11-02T16:44:11.548Z,9.00
2022-11-02T16:46:53.697Z,9.00
2022-11-02T16:49:24.322Z,8.90
2022-11-02T16:51:58.653Z,8.90
2022-11-02T16:54:40.941Z,8.90
2022-11-02T16:57:16.882Z,8.90
2022-11-02T16:59:53.514Z,8.80
2022-11-02T17:02:32.822Z,8.80
2022-11-02T17:05:06.228Z,8.90
2022-11-02T17:07:40.235Z,8.90
2022-11-02T17:10:21.311Z,8.80
2022-11-02T17:12:51.382Z,8.90
2022-11-02T17:15:25.608Z,8.90
2022-11-02T17:18:17.649Z,8.90
2022-11-02T17:20:46.261Z,8.90
2022-11-02T17:23:33.856Z,8.90
2022-11-02T17:26:30.008Z,8.90
2022-11-02T17:29:04.236Z,8.90
2022-11-02T17:31:38.567Z,8.90
2022-11-02T17:34:12.527Z,8.90
2022-11-02T17:36:44.442Z,8.90
2022-11-02T17:39:15.193Z,9.00
2022-11-02T17:42:03.693Z,9.00
2022-11-02T17:44:32.434Z,8.90
2022-11-02T17:47:01.946Z,8.80
2022-11-02T17:49:30.730Z,8.90
2022-11-02T17:51:59.626Z,9.00
2022-11-02T17:54:28.395Z,9.10
2022-11-02T17:56:58.571Z,9.30
2022-11-02T17:59:33.089Z,9.40
2022-11-02T18:02:03.881Z,9.60
2022-11-02T18:04:32.952Z,9.60
2022-11-02T18:07:01.949Z,9.70
2022-11-02T18:09:30.767Z,9.80
2022-11-02T18:12:00.992Z,9.80
2022-11-02T18:14:29.705Z,9.90
2022-11-02T18:16:58.427Z,10.10
2022-11-02T18:19:29.142Z,10.10
2022-11-02T18:21:58.044Z,10.20
2022-11-02T18:24:26.790Z,10.20
2022-11-02T18:26:55.899Z,10.20
2022-11-02T18:29:30.346Z,10.30
2022-11-02T18:32:01.879Z,10.30
2022-11-02T18:34:31.904Z,10.40
2022-11-02T18:37:01.308Z,10.40
2022-11-02T18:39:37.320Z,10.40
2022-11-02T18:42:09.027Z,10.50
2022-11-02T18:44:40.440Z,10.60
2022-11-02T18:47:10.103Z,10.70
2022-11-02T18:49:41.650Z,10.80
2022-11-02T18:52:10.848Z,11.00
2022-11-02T18:54:41.645Z,11.00
2022-11-02T18:57:13.419Z,11.10
2022-11-02T18:59:43.648Z,11.20
2022-11-02T19:02:13.074Z,11.30
2022-11-02T19:04:41.779Z,11.30
2022-11-02T19:07:28.722Z,11.40
2022-11-02T19:10:00.998Z,11.40
2022-11-02T19:12:34.086Z,11.50
2022-11-02T19:15:08.469Z,11.50
2022-11-02T19:17:39.986Z,11.50
2022-11-02T19:20:12.490Z,11.60
2022-11-02T19:22:41.142Z,11.60
2022-11-02T19:25:14.803Z,11.60
2022-11-02T19:27:47.001Z,11.60
2022-11-02T19:30:19.658Z,11.60
2022-11-02T19:32:48.339Z,11.70
2022-11-02T19:35:18.958Z,11.80
2022-11-02T19:37:51.541Z,11.80
2022-11-02T19:40:23.408Z,11.90
2022-11-02T19:42:52.984Z,12.00
2022-11-02T19:45:28.378Z,12.00
2022-11-02T19:48:03.832Z,12.00
2022-11-02T19:50:33.397Z,12.00
2022-11-02T19:53:03.352Z,12.00
2022-11-02T19:55:35.365Z,12.10
2022-11-02T19:58:06.289Z,12.10
2022-11-02T20:00:40.744Z,12.10
2022-11-02T20:03:09.638Z,12.10
2022-11-02T20:05:42.254Z,12.10
2022-11-02T20:08:11.974Z,12.00
2022-11-02T20:10:40.718Z,12.00
2022-11-02T20:13:12.538Z,12.00
2022-11-02T20:15:48.213Z,12.00
2022-11-02T20:18:19.747Z,12.00
2022-11-02T20:20:52.524Z,12.00
2022-11-02T20:23:23.813Z,12.00
2022-11-02T20:25:54.217Z,12.00
2022-11-02T20:28:27.093Z,11.90
2022-11-02T20:31:03.476Z,11.90
2022-11-02T20:33:35.769Z,11.90
2022-11-02T20:36:11.815Z,11.90
2022-11-02T20:38:47.472Z,11.90
2022-11-02T20:41:22.211Z,11.80
2022-11-02T20:43:57.226Z,11.80
2022-11-02T20:46:41.868Z,11.80
2022-11-02T20:49:21.738Z,11.80
2022-11-02T20:52:02.628Z,11.70
2022-11-02T20:54:35.595Z,11.80
2022-11-02T20:57:12.225Z,11.70
2022-11-02T20:59:46.505Z,11.70
2022-11-02T21:02:24.281Z,11.60
2022-11-02T21:04:56.672Z,11.60
2022-11-02T21:07:28.903Z,11.50
2022-11-02T21:10:00.429Z,11.50
2022-11-02T21:12:51.236Z,11.40
2022-11-02T21:15:28.746Z,11.20
2022-11-02T21:18:01.254Z,11.10
2022-11-02T21:20:34.204Z,10.90
2022-11-02T21:23:04.274Z,10.80
2022-11-02T21:25:33.973Z,10.60
2022-11-02T21:28:03.077Z,10.60
2022-11-02T21:30:32.317Z,10.60
2022-11-02T21:33:02.912Z,10.50
2022-11-02T21:35:35.213Z,10.50
2022-11-02T21:38:07.951Z,10.50
2022-11-02T21:40:41.415Z,10.40
2022-11-02T21:43:14.703Z,10.20
2022-11-02T21:45:56.878Z,10.00
2022-11-02T21:48:34.050Z,9.90
2022-11-02T21:51:10.219Z,9.70
2022-11-02T21:53:41.730Z,9.60
2022-11-02T21:56:13.761Z,9.50
2022-11-02T21:58:47.810Z,9.30
2022-11-02T22:01:36.523Z,9.20
2022-11-02T22:04:08.200Z,9.10
2022-11-02T22:06:43.847Z,9.00
2022-11-02T22:09:15.866Z,8.90
2022-11-02T22:11:45.370Z,8.90
2022-11-02T22:14:16.043Z,8.80
2022-11-02T22:16:48.366Z,8.80
2022-11-02T22:19:19.113Z,8.70
2022-11-02T22:21:50.394Z,8.70
2022-11-02T22:24:23.477Z,8.70
2022-11-02T22:26:56.055Z,8.70
2022-11-02T22:29:28.500Z,8.70
2022-11-02T22:32:02.722Z,8.60
2022-11-02T22:34:35.637Z,8.60
2022-11-02T22:37:18.072Z,8.70
2022-11-02T22:39:49.284Z,8.70
2022-11-02T22:42:17.980Z,8.90
2022-11-02T22:44:50.786Z,9.10
2022-11-02T22:47:22.788Z,9.30
2022-11-02T22:49:55.036Z,9.40
2022-11-02T22:52:27.284Z,9.50
2022-11-02T22:55:00.448Z,9.60
2022-11-02T22:57:31.453Z,9.80
2022-11-02T23:00:01.874Z,9.80
2022-11-02T23:02:31.081Z,9.90
2022-11-02T23:05:02.216Z,10.00
2022-11-02T23:07:32.526Z,10.00
2022-11-02T23:10:25.302Z,10.00
2022-11-02T23:12:55.078Z,10.00
2022-11-02T23:15:26.232Z,10.10
2022-11-02T23:17:56.205Z,10.10
2022-11-02T23:20:28.298Z,10.20
2022-11-02T23:23:25.513Z,10.20
2022-11-02T23:25:57.661Z,10.20
2022-11-02T23:28:45.684Z,10.10
2022-11-02T23:31:33.418Z,10.00
2022-11-02T23:34:03.725Z,9.90
2022-11-02T23:36:35.129Z,9.70
2022-11-02T23:39:20.924Z,9.70
2022-11-02T23:41:50.612Z,9.60
2022-11-02T23:44:19.384Z,9.60
2022-11-02T23:46:51.899Z,9.40
2022-11-02T23:49:22.128Z,9.30
2022-11-02T23:52:10.677Z,9.30
2022-11-02T23:54:57.365Z,9.20
2022-11-02T23:57:26.203Z,9.20
2022-11-02T23:59:55.908Z,9.10
